sensor_id;sensor_type;location;lat;lon;timestamp;P1;durP1;ratioP1;P2;durP2;ratioP2
1276;SDS011;631;51.024;13.826;2024-01-15T00:01:49;15.00;;;13.90;;
1276;SDS011;631;51.024;13.826;2024-01-15T00:04:15;14.50;;;13.50;;
1276;SDS011;631;51.024;13.826;2024-01-15T00:06:40;15.10;;;13.90;;
1276;SDS011;631;51.024;13.826;2024-01-15T00:09:06;14.87;;;13.80;;
1276;SDS011;631;51.024;13.826;2024-01-15T00:11:32;15.60;;;14.47;;
1276;SDS011;631;51.024;13.826;2024-01-15T00:13:58;15.00;;;13.75;;
1276;SDS011;631;51.024;13.826;2024-01-15T00:16:24;15.80;;;14.60;;
1276;SDS011;631;51.024;13.826;2024-01-15T00:18:49;15.37;;;14.20;;
1276;SDS011;631;51.024;13.826;2024-01-15T00:21:15;15.83;;;14.47;;
1276;SDS011;631;51.024;13.826;2024-01-15T00:23:43;16.00;;;14.60;;
1276;SDS011;631;51.024;13.826;2024-01-15T00:26:09;16.08;;;14.77;;
1276;SDS011;631;51.024;13.826;2024-01-15T00:28:36;16.33;;;14.93;;
1276;SDS011;631;51.024;13.826;2024-01-15T00:31:02;15.65;;;14.48;;
1276;SDS011;631;51.024;13.826;2024-01-15T00:33:29;15.73;;;14.38;;
1276;SDS011;631;51.024;13.826;2024-01-15T00:35:54;16.90;;;15.40;;
1276;SDS011;631;51.024;13.826;2024-01-15T00:38:20;16.87;;;15.47;;
1276;SDS011;631;51.024;13.826;2024-01-15T00:40:46;15.97;;;14.67;;
1276;SDS011;631;51.024;13.826;2024-01-15T00:43:11;16.43;;;15.13;;
1276;SDS011;631;51.024;13.826;2024-01-15T00:45:37;16.50;;;15.27;;
1276;SDS011;631;51.024;13.826;2024-01-15T00:48:03;17.33;;;15.77;;
1276;SDS011;631;51.024;13.826;2024-01-15T00:50:29;17.15;;;15.95;;
1276;SDS011;631;51.024;13.826;2024-01-15T00:52:55;16.77;;;15.40;;
1276;SDS011;631;51.024;13.826;2024-01-15T00:55:20;16.90;;;15.60;;
1276;SDS011;631;51.024;13.826;2024-01-15T00:57:46;16.60;;;15.27;;
1276;SDS011;631;51.024;13.826;2024-01-15T01:00:12;16.53;;;15.13;;
1276;SDS011;631;51.024;13.826;2024-01-15T01:02:38;15.80;;;14.43;;
1276;SDS011;631;51.024;13.826;2024-01-15T01:05:03;15.67;;;14.37;;
1276;SDS011;631;51.024;13.826;2024-01-15T01:07:29;16.35;;;14.90;;
1276;SDS011;631;51.024;13.826;2024-01-15T01:09:55;16.27;;;15.00;;
1276;SDS011;631;51.024;13.826;2024-01-15T01:12:20;16.17;;;14.80;;
1276;SDS011;631;51.024;13.826;2024-01-15T01:14:46;16.33;;;15.03;;
1276;SDS011;631;51.024;13.826;2024-01-15T01:17:12;16.70;;;15.50;;
1276;SDS011;631;51.024;13.826;2024-01-15T01:19:37;17.00;;;15.30;;
1276;SDS011;631;51.024;13.826;2024-01-15T01:22:03;17.20;;;15.70;;
1276;SDS011;631;51.024;13.826;2024-01-15T01:24:29;19.03;;;15.43;;
1276;SDS011;631;51.024;13.826;2024-01-15T01:26:54;16.73;;;15.43;;
1276;SDS011;631;51.024;13.826;2024-01-15T01:29:20;17.60;;;16.00;;
1276;SDS011;631;51.024;13.826;2024-01-15T01:31:46;16.97;;;15.50;;
1276;SDS011;631;51.024;13.826;2024-01-15T01:34:15;16.87;;;15.50;;
1276;SDS011;631;51.024;13.826;2024-01-15T01:36:44;16.60;;;15.20;;
1276;SDS011;631;51.024;13.826;2024-01-15T01:39:09;17.70;;;16.17;;
1276;SDS011;631;51.024;13.826;2024-01-15T01:41:35;17.13;;;15.47;;
1276;SDS011;631;51.024;13.826;2024-01-15T01:44:01;17.30;;;15.77;;
1276;SDS011;631;51.024;13.826;2024-01-15T01:46:27;16.70;;;15.30;;
1276;SDS011;631;51.024;13.826;2024-01-15T01:48:54;16.33;;;15.10;;
1276;SDS011;631;51.024;13.826;2024-01-15T01:51:21;17.20;;;15.20;;
1276;SDS011;631;51.024;13.826;2024-01-15T01:53:49;17.75;;;16.10;;
1276;SDS011;631;51.024;13.826;2024-01-15T01:56:15;16.42;;;15.20;;
1276;SDS011;631;51.024;13.826;2024-01-15T01:58:42;15.30;;;14.10;;
1276;SDS011;631;51.024;13.826;2024-01-15T02:01:09;15.90;;;14.57;;
1276;SDS011;631;51.024;13.826;2024-01-15T02:03:36;15.77;;;14.23;;
1276;SDS011;631;51.024;13.826;2024-01-15T02:06:03;16.05;;;14.85;;
1276;SDS011;631;51.024;13.826;2024-01-15T02:08:29;16.30;;;14.90;;
1276;SDS011;631;51.024;13.826;2024-01-15T02:10:55;15.43;;;14.32;;
1276;SDS011;631;51.024;13.826;2024-01-15T02:13:20;15.87;;;14.67;;
1276;SDS011;631;51.024;13.826;2024-01-15T02:15:46;16.40;;;15.00;;
1276;SDS011;631;51.024;13.826;2024-01-15T02:18:12;15.87;;;14.57;;
1276;SDS011;631;51.024;13.826;2024-01-15T02:20:37;16.27;;;14.87;;
1276;SDS011;631;51.024;13.826;2024-01-15T02:23:10;15.73;;;14.50;;
1276;SDS011;631;51.024;13.826;2024-01-15T02:25:37;15.88;;;14.60;;
1276;SDS011;631;51.024;13.826;2024-01-15T02:28:10;14.80;;;13.70;;
1276;SDS011;631;51.024;13.826;2024-01-15T02:30:41;16.00;;;14.57;;
1276;SDS011;631;51.024;13.826;2024-01-15T02:33:07;17.30;;;15.63;;
1276;SDS011;631;51.024;13.826;2024-01-15T02:35:35;15.93;;;14.63;;
1276;SDS011;631;51.024;13.826;2024-01-15T02:38:06;15.93;;;14.50;;
1276;SDS011;631;51.024;13.826;2024-01-15T02:40:32;16.42;;;15.10;;
1276;SDS011;631;51.024;13.826;2024-01-15T02:42:58;16.85;;;15.52;;
1276;SDS011;631;51.024;13.826;2024-01-15T02:45:24;16.83;;;15.10;;
1276;SDS011;631;51.024;13.826;2024-01-15T02:47:50;16.60;;;15.30;;
1276;SDS011;631;51.024;13.826;2024-01-15T02:50:16;16.67;;;15.30;;
1276;SDS011;631;51.024;13.826;2024-01-15T02:52:41;17.87;;;16.07;;
1276;SDS011;631;51.024;13.826;2024-01-15T02:55:07;17.60;;;16.03;;
1276;SDS011;631;51.024;13.826;2024-01-15T02:57:33;16.27;;;15.07;;
1276;SDS011;631;51.024;13.826;2024-01-15T02:59:59;16.40;;;14.97;;
1276;SDS011;631;51.024;13.826;2024-01-15T03:02:25;15.73;;;14.47;;
1276;SDS011;631;51.024;13.826;2024-01-15T03:04:50;16.27;;;14.87;;
1276;SDS011;631;51.024;13.826;2024-01-15T03:07:16;17.03;;;15.43;;
1276;SDS011;631;51.024;13.826;2024-01-15T03:09:42;15.73;;;14.40;;
1276;SDS011;631;51.024;13.826;2024-01-15T03:12:07;16.80;;;15.20;;
1276;SDS011;631;51.024;13.826;2024-01-15T03:14:33;16.13;;;14.90;;
1276;SDS011;631;51.024;13.826;2024-01-15T03:16:59;14.75;;;13.65;;
1276;SDS011;631;51.024;13.826;2024-01-15T03:19:25;16.33;;;15.13;;
1276;SDS011;631;51.024;13.826;2024-01-15T03:21:52;16.10;;;14.90;;
1276;SDS011;631;51.024;13.826;2024-01-15T03:24:18;16.30;;;15.03;;
1276;SDS011;631;51.024;13.826;2024-01-15T03:26:44;16.77;;;15.47;;
1276;SDS011;631;51.024;13.826;2024-01-15T03:29:09;16.83;;;15.30;;
1276;SDS011;631;51.024;13.826;2024-01-15T03:31:35;15.37;;;14.10;;
1276;SDS011;631;51.024;13.826;2024-01-15T03:34:00;16.50;;;14.83;;
1276;SDS011;631;51.024;13.826;2024-01-15T03:36:26;16.00;;;14.73;;
1276;SDS011;631;51.024;13.826;2024-01-15T03:38:52;16.97;;;15.47;;
1276;SDS011;631;51.024;13.826;2024-01-15T03:41:17;16.70;;;15.40;;
1276;SDS011;631;51.024;13.826;2024-01-15T03:43:43;17.33;;;15.83;;
1276;SDS011;631;51.024;13.826;2024-01-15T03:46:08;17.73;;;16.30;;
1276;SDS011;631;51.024;13.826;2024-01-15T03:48:34;16.50;;;15.00;;
1276;SDS011;631;51.024;13.826;2024-01-15T03:51:00;16.63;;;15.20;;
1276;SDS011;631;51.024;13.826;2024-01-15T03:53:25;16.37;;;14.77;;
1276;SDS011;631;51.024;13.826;2024-01-15T03:55:51;17.17;;;15.67;;
1276;SDS011;631;51.024;13.826;2024-01-15T03:58:17;17.88;;;16.13;;
1276;SDS011;631;51.024;13.826;2024-01-15T04:00:43;16.27;;;14.80;;
1276;SDS011;631;51.024;13.826;2024-01-15T04:03:08;17.63;;;15.93;;
1276;SDS011;631;51.024;13.826;2024-01-15T04:05:34;16.63;;;15.10;;
1276;SDS011;631;51.024;13.826;2024-01-15T04:08:00;17.07;;;15.67;;
1276;SDS011;631;51.024;13.826;2024-01-15T04:10:26;18.20;;;16.60;;
1276;SDS011;631;51.024;13.826;2024-01-15T04:12:51;16.50;;;14.90;;
1276;SDS011;631;51.024;13.826;2024-01-15T04:15:17;17.33;;;15.77;;
1276;SDS011;631;51.024;13.826;2024-01-15T04:17:42;16.60;;;15.10;;
1276;SDS011;631;51.024;13.826;2024-01-15T04:20:08;17.30;;;15.50;;
1276;SDS011;631;51.024;13.826;2024-01-15T04:22:35;16.98;;;15.50;;
1276;SDS011;631;51.024;13.826;2024-01-15T04:25:01;18.35;;;16.55;;
1276;SDS011;631;51.024;13.826;2024-01-15T04:27:27;15.90;;;14.48;;
1276;SDS011;631;51.024;13.826;2024-01-15T04:29:53;15.53;;;14.40;;
1276;SDS011;631;51.024;13.826;2024-01-15T04:32:19;15.80;;;14.50;;
1276;SDS011;631;51.024;13.826;2024-01-15T04:34:44;16.27;;;14.60;;
1276;SDS011;631;51.024;13.826;2024-01-15T04:37:10;17.77;;;16.17;;
1276;SDS011;631;51.024;13.826;2024-01-15T04:39:36;16.17;;;14.77;;
1276;SDS011;631;51.024;13.826;2024-01-15T04:42:01;17.20;;;15.50;;
1276;SDS011;631;51.024;13.826;2024-01-15T04:44:27;15.23;;;14.00;;
1276;SDS011;631;51.024;13.826;2024-01-15T04:46:53;16.50;;;15.13;;
1276;SDS011;631;51.024;13.826;2024-01-15T04:49:19;17.23;;;15.60;;
1276;SDS011;631;51.024;13.826;2024-01-15T04:51:44;15.87;;;14.47;;
1276;SDS011;631;51.024;13.826;2024-01-15T04:54:10;17.53;;;16.03;;
1276;SDS011;631;51.024;13.826;2024-01-15T04:56:36;15.95;;;14.55;;
1276;SDS011;631;51.024;13.826;2024-01-15T04:59:02;15.77;;;14.27;;
1276;SDS011;631;51.024;13.826;2024-01-15T05:01:31;14.97;;;13.70;;
1276;SDS011;631;51.024;13.826;2024-01-15T05:03:57;14.90;;;13.63;;
1276;SDS011;631;51.024;13.826;2024-01-15T05:06:23;14.10;;;12.50;;
1276;SDS011;631;51.024;13.826;2024-01-15T05:08:49;15.73;;;14.30;;
1276;SDS011;631;51.024;13.826;2024-01-15T05:11:14;15.10;;;14.00;;
1276;SDS011;631;51.024;13.826;2024-01-15T05:13:40;14.60;;;13.40;;
1276;SDS011;631;51.024;13.826;2024-01-15T05:16:05;15.90;;;14.30;;
1276;SDS011;631;51.024;13.826;2024-01-15T05:18:31;16.40;;;14.77;;
1276;SDS011;631;51.024;13.826;2024-01-15T05:20:57;16.27;;;14.67;;
1276;SDS011;631;51.024;13.826;2024-01-15T05:23:22;15.50;;;14.20;;
1276;SDS011;631;51.024;13.826;2024-01-15T05:25:48;16.10;;;14.57;;
1276;SDS011;631;51.024;13.826;2024-01-15T05:28:14;16.33;;;14.37;;
1276;SDS011;631;51.024;13.826;2024-01-15T05:30:39;17.07;;;15.47;;
1276;SDS011;631;51.024;13.826;2024-01-15T05:33:05;15.90;;;14.53;;
1276;SDS011;631;51.024;13.826;2024-01-15T05:35:32;14.32;;;13.20;;
1276;SDS011;631;51.024;13.826;2024-01-15T05:37:58;18.77;;;14.77;;
1276;SDS011;631;51.024;13.826;2024-01-15T05:40:23;14.60;;;13.30;;
1276;SDS011;631;51.024;13.826;2024-01-15T05:42:49;15.43;;;13.93;;
1276;SDS011;631;51.024;13.826;2024-01-15T05:45:15;15.00;;;13.63;;
1276;SDS011;631;51.024;13.826;2024-01-15T05:47:41;16.90;;;15.30;;
1276;SDS011;631;51.024;13.826;2024-01-15T05:50:06;15.70;;;14.27;;
1276;SDS011;631;51.024;13.826;2024-01-15T05:52:32;16.73;;;14.83;;
1276;SDS011;631;51.024;13.826;2024-01-15T05:54:58;15.50;;;13.90;;
1276;SDS011;631;51.024;13.826;2024-01-15T05:57:23;17.03;;;15.20;;
1276;SDS011;631;51.024;13.826;2024-01-15T05:59:49;17.00;;;15.20;;
1276;SDS011;631;51.024;13.826;2024-01-15T06:02:14;16.87;;;15.30;;
1276;SDS011;631;51.024;13.826;2024-01-15T06:04:40;16.43;;;13.90;;
1276;SDS011;631;51.024;13.826;2024-01-15T06:07:06;15.73;;;14.33;;
1276;SDS011;631;51.024;13.826;2024-01-15T06:09:31;16.20;;;14.53;;
1276;SDS011;631;51.024;13.826;2024-01-15T06:11:57;16.20;;;14.30;;
1276;SDS011;631;51.024;13.826;2024-01-15T06:14:23;17.17;;;13.90;;
1276;SDS011;631;51.024;13.826;2024-01-15T06:16:48;15.80;;;13.07;;
1276;SDS011;631;51.024;13.826;2024-01-15T06:19:14;17.00;;;15.30;;
1276;SDS011;631;51.024;13.826;2024-01-15T06:21:40;14.57;;;13.27;;
1276;SDS011;631;51.024;13.826;2024-01-15T06:24:05;15.30;;;13.90;;
1276;SDS011;631;51.024;13.826;2024-01-15T06:26:31;15.63;;;14.13;;
1276;SDS011;631;51.024;13.826;2024-01-15T06:28:57;14.73;;;13.40;;
1276;SDS011;631;51.024;13.826;2024-01-15T06:31:22;16.27;;;14.57;;
1276;SDS011;631;51.024;13.826;2024-01-15T06:33:48;14.90;;;13.20;;
1276;SDS011;631;51.024;13.826;2024-01-15T06:36:14;15.10;;;13.80;;
1276;SDS011;631;51.024;13.826;2024-01-15T06:38:41;14.65;;;13.27;;
1276;SDS011;631;51.024;13.826;2024-01-15T06:41:08;15.23;;;13.82;;
1276;SDS011;631;51.024;13.826;2024-01-15T06:43:33;13.93;;;12.67;;
1276;SDS011;631;51.024;13.826;2024-01-15T06:45:59;14.60;;;13.20;;
1276;SDS011;631;51.024;13.826;2024-01-15T06:48:24;15.10;;;13.60;;
1276;SDS011;631;51.024;13.826;2024-01-15T06:50:50;13.73;;;12.63;;
1276;SDS011;631;51.024;13.826;2024-01-15T06:53:16;14.97;;;13.70;;
1276;SDS011;631;51.024;13.826;2024-01-15T06:55:41;15.67;;;14.30;;
1276;SDS011;631;51.024;13.826;2024-01-15T06:58:07;13.87;;;12.73;;
1276;SDS011;631;51.024;13.826;2024-01-15T07:00:33;14.20;;;13.03;;
1276;SDS011;631;51.024;13.826;2024-01-15T07:02:58;14.47;;;13.47;;
1276;SDS011;631;51.024;13.826;2024-01-15T07:05:24;14.27;;;13.07;;
1276;SDS011;631;51.024;13.826;2024-01-15T07:07:50;13.30;;;12.27;;
1276;SDS011;631;51.024;13.826;2024-01-15T07:10:15;14.10;;;12.90;;
1276;SDS011;631;51.024;13.826;2024-01-15T07:12:42;14.43;;;13.30;;
1276;SDS011;631;51.024;13.826;2024-01-15T07:15:08;16.02;;;14.25;;
1276;SDS011;631;51.024;13.826;2024-01-15T07:17:34;13.00;;;12.10;;
1276;SDS011;631;51.024;13.826;2024-01-15T07:20:00;13.27;;;12.25;;
1276;SDS011;631;51.024;13.826;2024-01-15T07:22:26;14.18;;;12.98;;
1276;SDS011;631;51.024;13.826;2024-01-15T07:24:52;14.50;;;13.00;;
1276;SDS011;631;51.024;13.826;2024-01-15T07:27:18;13.67;;;12.37;;
1276;SDS011;631;51.024;13.826;2024-01-15T07:29:43;14.20;;;13.10;;
1276;SDS011;631;51.024;13.826;2024-01-15T07:32:09;13.77;;;12.67;;
1276;SDS011;631;51.024;13.826;2024-01-15T07:34:35;14.80;;;13.50;;
1276;SDS011;631;51.024;13.826;2024-01-15T07:37:00;13.27;;;12.17;;
1276;SDS011;631;51.024;13.826;2024-01-15T07:39:26;14.07;;;12.83;;
1276;SDS011;631;51.024;13.826;2024-01-15T07:41:53;13.20;;;12.23;;
1276;SDS011;631;51.024;13.826;2024-01-15T07:44:19;13.07;;;12.07;;
1276;SDS011;631;51.024;13.826;2024-01-15T07:46:48;13.17;;;12.10;;
1276;SDS011;631;51.024;13.826;2024-01-15T07:49:13;13.90;;;13.00;;
1276;SDS011;631;51.024;13.826;2024-01-15T07:51:39;14.10;;;12.90;;
1276;SDS011;631;51.024;13.826;2024-01-15T07:54:05;12.67;;;11.80;;
1276;SDS011;631;51.024;13.826;2024-01-15T07:56:31;15.05;;;13.75;;
1276;SDS011;631;51.024;13.826;2024-01-15T07:58:58;14.40;;;13.30;;
1276;SDS011;631;51.024;13.826;2024-01-15T08:01:23;13.50;;;12.50;;
1276;SDS011;631;51.024;13.826;2024-01-15T08:03:49;14.60;;;13.40;;
1276;SDS011;631;51.024;13.826;2024-01-15T08:06:15;15.33;;;14.03;;
1276;SDS011;631;51.024;13.826;2024-01-15T08:08:40;13.23;;;12.03;;
1276;SDS011;631;51.024;13.826;2024-01-15T08:11:06;12.00;;;11.23;;
1276;SDS011;631;51.024;13.826;2024-01-15T08:13:31;13.93;;;12.60;;
1276;SDS011;631;51.024;13.826;2024-01-15T08:15:57;14.00;;;12.90;;
1276;SDS011;631;51.024;13.826;2024-01-15T08:18:23;13.55;;;12.55;;
1276;SDS011;631;51.024;13.826;2024-01-15T08:20:50;12.88;;;11.85;;
1276;SDS011;631;51.024;13.826;2024-01-15T08:23:17;14.40;;;13.20;;
1276;SDS011;631;51.024;13.826;2024-01-15T08:25:42;13.63;;;12.53;;
1276;SDS011;631;51.024;13.826;2024-01-15T08:28:08;13.53;;;12.50;;
1276;SDS011;631;51.024;13.826;2024-01-15T08:30:33;13.23;;;12.13;;
1276;SDS011;631;51.024;13.826;2024-01-15T08:32:59;14.47;;;13.30;;
1276;SDS011;631;51.024;13.826;2024-01-15T08:35:25;13.60;;;12.60;;
1276;SDS011;631;51.024;13.826;2024-01-15T08:37:54;14.37;;;13.37;;
1276;SDS011;631;51.024;13.826;2024-01-15T08:40:19;14.98;;;13.77;;
1276;SDS011;631;51.024;13.826;2024-01-15T08:42:45;13.47;;;12.37;;
1276;SDS011;631;51.024;13.826;2024-01-15T08:45:11;13.77;;;12.57;;
1276;SDS011;631;51.024;13.826;2024-01-15T08:47:37;13.13;;;12.20;;
1276;SDS011;631;51.024;13.826;2024-01-15T08:50:03;13.60;;;12.63;;
1276;SDS011;631;51.024;13.826;2024-01-15T08:52:29;13.60;;;12.70;;
1276;SDS011;631;51.024;13.826;2024-01-15T08:54:56;13.93;;;13.03;;
1276;SDS011;631;51.024;13.826;2024-01-15T08:57:22;12.50;;;11.60;;
1276;SDS011;631;51.024;13.826;2024-01-15T08:59:48;14.07;;;12.90;;
1276;SDS011;631;51.024;13.826;2024-01-15T09:02:13;14.23;;;13.17;;
1276;SDS011;631;51.024;13.826;2024-01-15T09:04:39;13.50;;;12.50;;
1276;SDS011;631;51.024;13.826;2024-01-15T09:07:06;14.45;;;13.35;;
1276;SDS011;631;51.024;13.826;2024-01-15T09:09:32;13.50;;;12.45;;
1276;SDS011;631;51.024;13.826;2024-01-15T09:11:59;13.40;;;12.60;;
1276;SDS011;631;51.024;13.826;2024-01-15T09:14:24;13.87;;;12.80;;
1276;SDS011;631;51.024;13.826;2024-01-15T09:16:51;13.27;;;12.27;;
1276;SDS011;631;51.024;13.826;2024-01-15T09:19:18;14.15;;;12.93;;
1276;SDS011;631;51.024;13.826;2024-01-15T09:21:44;13.13;;;12.23;;
1276;SDS011;631;51.024;13.826;2024-01-15T09:24:09;14.53;;;13.23;;
1276;SDS011;631;51.024;13.826;2024-01-15T09:26:35;13.43;;;12.53;;
1276;SDS011;631;51.024;13.826;2024-01-15T09:29:00;14.50;;;13.40;;
1276;SDS011;631;51.024;13.826;2024-01-15T09:31:27;12.60;;;11.93;;
1276;SDS011;631;51.024;13.826;2024-01-15T09:33:53;12.77;;;11.97;;
1276;SDS011;631;51.024;13.826;2024-01-15T09:36:21;14.30;;;13.10;;
1276;SDS011;631;51.024;13.826;2024-01-15T09:38:47;13.10;;;12.30;;
1276;SDS011;631;51.024;13.826;2024-01-15T09:41:13;12.80;;;11.90;;
1276;SDS011;631;51.024;13.826;2024-01-15T09:43:40;13.02;;;12.00;;
1276;SDS011;631;51.024;13.826;2024-01-15T09:46:05;12.53;;;11.73;;
1276;SDS011;631;51.024;13.826;2024-01-15T09:48:31;13.27;;;12.30;;
1276;SDS011;631;51.024;13.826;2024-01-15T09:50:59;11.90;;;11.10;;
1276;SDS011;631;51.024;13.826;2024-01-15T09:53:31;11.88;;;11.07;;
1276;SDS011;631;51.024;13.826;2024-01-15T09:55:57;13.30;;;12.10;;
1276;SDS011;631;51.024;13.826;2024-01-15T09:58:23;13.80;;;12.90;;
1276;SDS011;631;51.024;13.826;2024-01-15T10:00:49;12.35;;;11.65;;
1276;SDS011;631;51.024;13.826;2024-01-15T10:03:16;12.35;;;11.45;;
1276;SDS011;631;51.024;13.826;2024-01-15T10:05:43;14.07;;;13.07;;
1276;SDS011;631;51.024;13.826;2024-01-15T10:08:08;13.93;;;12.73;;
1276;SDS011;631;51.024;13.826;2024-01-15T10:10:36;12.85;;;11.98;;
1276;SDS011;631;51.024;13.826;2024-01-15T10:13:02;13.32;;;12.18;;
1276;SDS011;631;51.024;13.826;2024-01-15T10:15:29;12.52;;;11.73;;
1276;SDS011;631;51.024;13.826;2024-01-15T10:17:55;11.70;;;10.80;;
1276;SDS011;631;51.024;13.826;2024-01-15T10:20:20;12.67;;;11.87;;
1276;SDS011;631;51.024;13.826;2024-01-15T10:22:49;11.45;;;10.65;;
1276;SDS011;631;51.024;13.826;2024-01-15T10:25:15;13.15;;;12.15;;
1276;SDS011;631;51.024;13.826;2024-01-15T10:27:41;12.90;;;12.10;;
1276;SDS011;631;51.024;13.826;2024-01-15T10:30:08;11.80;;;10.98;;
1276;SDS011;631;51.024;13.826;2024-01-15T10:32:35;12.23;;;11.23;;
1276;SDS011;631;51.024;13.826;2024-01-15T10:35:00;12.70;;;11.90;;
1276;SDS011;631;51.024;13.826;2024-01-15T10:37:26;12.37;;;11.57;;
1276;SDS011;631;51.024;13.826;2024-01-15T10:39:52;12.23;;;11.43;;
1276;SDS011;631;51.024;13.826;2024-01-15T10:42:17;13.03;;;12.03;;
1276;SDS011;631;51.024;13.826;2024-01-15T10:44:43;12.80;;;11.90;;
1276;SDS011;631;51.024;13.826;2024-01-15T10:47:12;12.68;;;11.88;;
1276;SDS011;631;51.024;13.826;2024-01-15T10:49:38;11.33;;;10.70;;
1276;SDS011;631;51.024;13.826;2024-01-15T10:52:04;12.70;;;11.90;;
1276;SDS011;631;51.024;13.826;2024-01-15T10:54:31;13.23;;;12.32;;
1276;SDS011;631;51.024;13.826;2024-01-15T10:56:57;12.52;;;11.75;;
1276;SDS011;631;51.024;13.826;2024-01-15T10:59:23;12.50;;;11.60;;
1276;SDS011;631;51.024;13.826;2024-01-15T11:01:52;12.77;;;11.98;;
1276;SDS011;631;51.024;13.826;2024-01-15T11:04:19;12.02;;;11.23;;
1276;SDS011;631;51.024;13.826;2024-01-15T11:06:50;11.90;;;11.10;;
1276;SDS011;631;51.024;13.826;2024-01-15T11:09:18;11.57;;;10.77;;
1276;SDS011;631;51.024;13.826;2024-01-15T11:11:44;11.67;;;10.87;;
1276;SDS011;631;51.024;13.826;2024-01-15T11:17:22;11.90;;;11.20;;
1276;SDS011;631;51.024;13.826;2024-01-15T11:19:48;11.80;;;10.97;;
1276;SDS011;631;51.024;13.826;2024-01-15T11:24:55;12.93;;;12.00;;
1276;SDS011;631;51.024;13.826;2024-01-15T11:27:39;12.48;;;11.68;;
1276;SDS011;631;51.024;13.826;2024-01-15T11:30:08;13.35;;;12.35;;
1276;SDS011;631;51.024;13.826;2024-01-15T11:32:36;11.48;;;10.50;;
1276;SDS011;631;51.024;13.826;2024-01-15T11:35:02;12.52;;;11.77;;
1276;SDS011;631;51.024;13.826;2024-01-15T11:38:01;12.25;;;11.30;;
1276;SDS011;631;51.024;13.826;2024-01-15T11:40:20;12.85;;;11.95;;
1276;SDS011;631;51.024;13.826;2024-01-15T11:42:47;13.55;;;12.75;;
1276;SDS011;631;51.024;13.826;2024-01-15T11:45:18;12.27;;;11.48;;
1276;SDS011;631;51.024;13.826;2024-01-15T11:50:31;11.82;;;11.02;;
1276;SDS011;631;51.024;13.826;2024-01-15T11:53:01;12.70;;;11.70;;
1276;SDS011;631;51.024;13.826;2024-01-15T11:55:35;13.15;;;12.25;;
1276;SDS011;631;51.024;13.826;2024-01-15T11:58:09;12.50;;;11.30;;
1276;SDS011;631;51.024;13.826;2024-01-15T12:00:35;11.82;;;10.88;;
1276;SDS011;631;51.024;13.826;2024-01-15T12:03:14;12.32;;;11.52;;
1276;SDS011;631;51.024;13.826;2024-01-15T12:05:40;12.57;;;11.70;;
1276;SDS011;631;51.024;13.826;2024-01-15T12:08:07;12.70;;;11.80;;
1276;SDS011;631;51.024;13.826;2024-01-15T12:10:35;13.50;;;12.60;;
1276;SDS011;631;51.024;13.826;2024-01-15T12:13:04;13.27;;;12.38;;
1276;SDS011;631;51.024;13.826;2024-01-15T12:15:34;13.30;;;12.20;;
1276;SDS011;631;51.024;13.826;2024-01-15T12:18:00;13.13;;;12.00;;
1276;SDS011;631;51.024;13.826;2024-01-15T12:20:27;13.68;;;12.40;;
1276;SDS011;631;51.024;13.826;2024-01-15T12:22:54;12.55;;;10.75;;
1276;SDS011;631;51.024;13.826;2024-01-15T12:25:21;11.98;;;11.18;;
1276;SDS011;631;51.024;13.826;2024-01-15T12:27:47;11.50;;;10.70;;
1276;SDS011;631;51.024;13.826;2024-01-15T12:30:13;11.80;;;11.10;;
1276;SDS011;631;51.024;13.826;2024-01-15T12:32:40;13.95;;;12.95;;
1276;SDS011;631;51.024;13.826;2024-01-15T12:35:07;13.35;;;12.45;;
1276;SDS011;631;51.024;13.826;2024-01-15T12:37:37;12.60;;;11.70;;
1276;SDS011;631;51.024;13.826;2024-01-15T12:40:04;12.00;;;10.90;;
1276;SDS011;631;51.024;13.826;2024-01-15T12:42:37;12.15;;;11.15;;
1276;SDS011;631;51.024;13.826;2024-01-15T12:45:05;11.65;;;10.85;;
1276;SDS011;631;51.024;13.826;2024-01-15T12:47:31;13.32;;;12.13;;
1276;SDS011;631;51.024;13.826;2024-01-15T12:49:58;12.68;;;11.77;;
1276;SDS011;631;51.024;13.826;2024-01-15T12:52:27;11.43;;;10.57;;
1276;SDS011;631;51.024;13.826;2024-01-15T12:54:54;13.38;;;12.40;;
1276;SDS011;631;51.024;13.826;2024-01-15T12:57:19;11.70;;;10.70;;
1276;SDS011;631;51.024;13.826;2024-01-15T12:59:45;13.60;;;12.40;;
1276;SDS011;631;51.024;13.826;2024-01-15T13:02:12;12.27;;;11.27;;
1276;SDS011;631;51.024;13.826;2024-01-15T13:04:38;13.05;;;12.25;;
1276;SDS011;631;51.024;13.826;2024-01-15T13:07:05;12.97;;;12.07;;
1276;SDS011;631;51.024;13.826;2024-01-15T13:09:33;13.95;;;12.75;;
1276;SDS011;631;51.024;13.826;2024-01-15T13:12:00;13.75;;;12.85;;
1276;SDS011;631;51.024;13.826;2024-01-15T13:14:30;12.93;;;11.95;;
1276;SDS011;631;51.024;13.826;2024-01-15T13:16:56;14.10;;;13.00;;
1276;SDS011;631;51.024;13.826;2024-01-15T13:19:23;13.60;;;12.50;;
1276;SDS011;631;51.024;13.826;2024-01-15T13:21:49;13.07;;;12.13;;
1276;SDS011;631;51.024;13.826;2024-01-15T13:24:16;12.13;;;11.23;;
1276;SDS011;631;51.024;13.826;2024-01-15T13:26:42;13.98;;;12.85;;
1276;SDS011;631;51.024;13.826;2024-01-15T13:29:08;13.40;;;12.30;;
1276;SDS011;631;51.024;13.826;2024-01-15T13:31:34;12.87;;;11.83;;
1276;SDS011;631;51.024;13.826;2024-01-15T13:33:59;12.87;;;11.97;;
1276;SDS011;631;51.024;13.826;2024-01-15T13:36:25;12.80;;;11.80;;
1276;SDS011;631;51.024;13.826;2024-01-15T13:38:52;11.38;;;10.68;;
1276;SDS011;631;51.024;13.826;2024-01-15T13:41:19;13.70;;;12.60;;
1276;SDS011;631;51.024;13.826;2024-01-15T13:43:52;13.00;;;12.10;;
1276;SDS011;631;51.024;13.826;2024-01-15T13:46:23;13.57;;;12.38;;
1276;SDS011;631;51.024;13.826;2024-01-15T13:48:51;14.20;;;12.98;;
1276;SDS011;631;51.024;13.826;2024-01-15T13:51:17;13.23;;;12.00;;
1276;SDS011;631;51.024;13.826;2024-01-15T13:53:42;13.90;;;11.80;;
1276;SDS011;631;51.024;13.826;2024-01-15T13:56:08;13.00;;;11.80;;
1276;SDS011;631;51.024;13.826;2024-01-15T13:58:35;13.77;;;12.77;;
1276;SDS011;631;51.024;13.826;2024-01-15T14:01:01;13.80;;;12.80;;
1276;SDS011;631;51.024;13.826;2024-01-15T14:03:29;13.68;;;12.68;;
1276;SDS011;631;51.024;13.826;2024-01-15T14:05:54;13.23;;;12.20;;
1276;SDS011;631;51.024;13.826;2024-01-15T14:08:20;12.00;;;11.10;;
1276;SDS011;631;51.024;13.826;2024-01-15T14:10:46;12.20;;;11.20;;
1276;SDS011;631;51.024;13.826;2024-01-15T14:13:11;12.20;;;11.30;;
1276;SDS011;631;51.024;13.826;2024-01-15T14:15:37;13.00;;;12.20;;
1276;SDS011;631;51.024;13.826;2024-01-15T14:18:03;12.80;;;11.80;;
1276;SDS011;631;51.024;13.826;2024-01-15T14:20:30;12.97;;;11.97;;
1276;SDS011;631;51.024;13.826;2024-01-15T14:22:56;14.25;;;13.05;;
1276;SDS011;631;51.024;13.826;2024-01-15T14:25:21;13.60;;;12.40;;
1276;SDS011;631;51.024;13.826;2024-01-15T14:27:47;13.67;;;12.53;;
1276;SDS011;631;51.024;13.826;2024-01-15T14:30:13;13.13;;;12.13;;
1276;SDS011;631;51.024;13.826;2024-01-15T14:32:40;13.43;;;12.23;;
1276;SDS011;631;51.024;13.826;2024-01-15T14:35:06;14.60;;;13.43;;
1276;SDS011;631;51.024;13.826;2024-01-15T14:37:35;13.27;;;12.10;;
1276;SDS011;631;51.024;13.826;2024-01-15T14:40:04;13.15;;;11.85;;
1276;SDS011;631;51.024;13.826;2024-01-15T14:42:33;14.25;;;12.88;;
1276;SDS011;631;51.024;13.826;2024-01-15T14:44:59;13.40;;;12.32;;
1276;SDS011;631;51.024;13.826;2024-01-15T14:47:27;13.50;;;12.50;;
1276;SDS011;631;51.024;13.826;2024-01-15T14:49:53;13.53;;;12.17;;
1276;SDS011;631;51.024;13.826;2024-01-15T14:52:18;13.53;;;12.63;;